sensor_id;sensor_type;location;lat;lon;timestamp;temperature;humidity
12374;DHT22;6251;51.762;8.660;2022-12-20T05:06:25;7.20;99.90
12374;DHT22;6251;51.762;8.660;2022-12-20T05:16:26;7.20;99.90
12374;DHT22;6251;51.762;8.660;2022-12-20T05:26:29;7.10;99.90
12374;DHT22;6251;51.762;8.660;2022-12-20T05:36:30;7.00;99.90
12374;DHT22;6251;51.762;8.660;2022-12-20T05:46:31;6.90;99.90
12374;DHT22;6251;51.762;8.660;2022-12-20T05:56:31;6.80;99.90
12374;DHT22;6251;51.762;8.660;2022-12-20T06:06:32;6.80;99.90
12374;DHT22;6251;51.762;8.660;2022-12-20T06:16:33;6.70;99.90
12374;DHT22;6251;51.762;8.660;2022-12-20T06:26:33;6.70;99.90
12374;DHT22;6251;51.762;8.660;2022-12-20T06:36:37;6.70;99.90
12374;DHT22;6251;51.762;8.660;2022-12-20T06:46:37;6.70;99.90
12374;DHT22;6251;51.762;8.660;2022-12-20T06:56:38;6.70;99.90
12374;DHT22;6251;51.762;8.660;2022-12-20T07:06:39;6.60;99.90
12374;DHT22;6251;51.762;8.660;2022-12-20T07:16:39;6.50;99.90
12374;DHT22;6251;51.762;8.660;2022-12-20T07:26:44;6.50;99.90
12374;DHT22;6251;51.762;8.660;2022-12-20T07:36:45;6.50;99.90
12374;DHT22;6251;51.762;8.660;2022-12-20T07:46:45;6.50;99.90
12374;DHT22;6251;51.762;8.660;2022-12-20T07:56:48;6.40;99.90
12374;DHT22;6251;51.762;8.660;2022-12-20T08:07:06;6.40;99.90
12374;DHT22;6251;51.762;8.660;2022-12-20T08:17:07;6.40;99.90
12374;DHT22;6251;51.762;8.660;2022-12-20T08:27:08;6.40;99.90
12374;DHT22;6251;51.762;8.660;2022-12-20T08:37:08;6.50;99.90
12374;DHT22;6251;51.762;8.660;2022-12-20T08:47:09;6.60;99.90
12374;DHT22;6251;51.762;8.660;2022-12-20T08:57:09;6.80;99.90
12374;DHT22;6251;51.762;8.660;2022-12-20T09:07:10;7.10;99.90
12374;DHT22;6251;51.762;8.660;2022-12-20T09:17:11;7.30;99.90
12374;DHT22;6251;51.762;8.660;2022-12-20T09:27:11;7.50;99.90
12374;DHT22;6251;51.762;8.660;2022-12-20T09:37:12;7.80;99.90
12374;DHT22;6251;51.762;8.660;2022-12-20T09:47:17;7.90;99.90
12374;DHT22;6251;51.762;8.660;2022-12-20T09:57:57;8.10;99.90
12374;DHT22;6251;51.762;8.660;2022-12-20T10:08:14;8.20;99.90
12374;DHT22;6251;51.762;8.660;2022-12-20T10:28:36;8.40;99.90
12374;DHT22;6251;51.762;8.660;2022-12-20T10:38:46;8.30;99.90
12374;DHT22;6251;51.762;8.660;2022-12-20T10:48:47;8.30;99.90
12374;DHT22;6251;51.762;8.660;2022-12-20T11:09:35;8.30;99.90
12374;DHT22;6251;51.762;8.660;2022-12-20T11:30:18;8.40;99.90
12374;DHT22;6251;51.762;8.660;2022-12-20T11:40:31;8.50;99.90
12374;DHT22;6251;51.762;8.660;2022-12-20T11:50:35;8.50;99.90
12374;DHT22;6251;51.762;8.660;2022-12-20T12:00:40;8.70;99.90
12374;DHT22;6251;51.762;8.660;2022-12-20T12:11:25;8.80;99.90
12374;DHT22;6251;51.762;8.660;2022-12-20T12:21:32;8.80;99.90
12374;DHT22;6251;51.762;8.660;2022-12-20T12:31:43;8.80;99.90
12374;DHT22;6251;51.762;8.660;2022-12-20T12:42:04;8.90;99.90
12374;DHT22;6251;51.762;8.660;2022-12-20T12:52:25;9.00;99.90
12374;DHT22;6251;51.762;8.660;2022-12-20T13:02:32;9.00;99.90
12374;DHT22;6251;51.762;8.660;2022-12-20T13:22:38;9.10;99.90
12374;DHT22;6251;51.762;8.660;2022-12-20T13:42:58;9.20;99.90
12374;DHT22;6251;51.762;8.660;2022-12-20T13:53:02;9.30;99.90
12374;DHT22;6251;51.762;8.660;2022-12-20T14:03:04;9.50;99.90
12374;DHT22;6251;51.762;8.660;2022-12-20T14:13:25;9.70;99.90
12374;DHT22;6251;51.762;8.660;2022-12-20T14:23:35;9.90;99.90
12374;DHT22;6251;51.762;8.660;2022-12-20T14:33:40;9.90;99.90
12374;DHT22;6251;51.762;8.660;2022-12-20T14:43:41;9.90;99.90
12374;DHT22;6251;51.762;8.660;2022-12-20T14:53:44;9.90;99.90
12374;DHT22;6251;51.762;8.660;2022-12-20T15:03:52;9.90;99.90
12374;DHT22;6251;51.762;8.660;2022-12-20T15:13:53;9.90;99.90
12374;DHT22;6251;51.762;8.660;2022-12-20T15:23:55;9.90;99.90
12374;DHT22;6251;51.762;8.660;2022-12-20T15:33:57;9.80;99.90
12374;DHT22;6251;51.762;8.660;2022-12-20T15:44:13;9.80;99.90
12374;DHT22;6251;51.762;8.660;2022-12-20T15:54:30;9.70;99.90
12374;DHT22;6251;51.762;8.660;2022-12-20T16:04:31;9.60;99.90
12374;DHT22;6251;51.762;8.660;2022-12-20T16:14:32;9.40;99.90
12374;DHT22;6251;51.762;8.660;2022-12-20T16:24:32;9.30;99.90
12374;DHT22;6251;51.762;8.660;2022-12-20T16:34:33;9.10;99.90
12374;DHT22;6251;51.762;8.660;2022-12-20T16:44:33;9.00;99.90
12374;DHT22;6251;51.762;8.660;2022-12-20T16:54:34;8.90;99.90
12374;DHT22;6251;51.762;8.660;2022-12-20T17:04:35;8.70;99.90
12374;DHT22;6251;51.762;8.660;2022-12-20T17:14:36;8.60;99.90
12374;DHT22;6251;51.762;8.660;2022-12-20T17:24:36;8.50;99.90
12374;DHT22;6251;51.762;8.660;2022-12-20T17:34:37;8.40;99.90
12374;DHT22;6251;51.762;8.660;2022-12-20T17:44:38;8.40;99.90
12374;DHT22;6251;51.762;8.660;2022-12-20T17:54:38;8.40;99.90
12374;DHT22;6251;51.762;8.660;2022-12-20T18:04:56;8.30;99.90
12374;DHT22;6251;51.762;8.660;2022-12-20T18:14:57;8.20;99.90
12374;DHT22;6251;51.762;8.660;2022-12-20T18:24:57;8.10;99.90
12374;DHT22;6251;51.762;8.660;2022-12-20T18:34:58;8.00;99.90
12374;DHT22;6251;51.762;8.660;2022-12-20T18:45:03;8.00;99.90
12374;DHT22;6251;51.762;8.660;2022-12-20T18:55:04;7.80;99.90
12374;DHT22;6251;51.762;8.660;2022-12-20T19:05:06;7.80;99.90
12374;DHT22;6251;51.762;8.660;2022-12-20T19:15:07;7.80;99.90
12374;DHT22;6251;51.762;8.660;2022-12-20T19:25:07;7.70;99.90
12374;DHT22;6251;51.762;8.660;2022-12-20T19:35:08;7.70;99.90
12374;DHT22;6251;51.762;8.660;2022-12-20T19:45:09;7.70;99.90
12374;DHT22;6251;51.762;8.660;2022-12-20T19:55:11;7.70;99.90
12374;DHT22;6251;51.762;8.660;2022-12-20T20:05:11;7.60;99.90
12374;DHT22;6251;51.762;8.660;2022-12-20T20:15:12;7.60;99.90
12374;DHT22;6251;51.762;8.660;2022-12-20T20:25:13;7.60;99.90
12374;DHT22;6251;51.762;8.660;2022-12-20T20:35:13;7.50;99.90
12374;DHT22;6251;51.762;8.660;2022-12-20T20:45:14;7.50;99.90
12374;DHT22;6251;51.762;8.660;2022-12-20T20:55:16;7.50;99.90
12374;DHT22;6251;51.762;8.660;2022-12-20T21:05:17;7.50;99.90
12374;DHT22;6251;51.762;8.660;2022-12-20T21:15:18;7.40;99.90
12374;DHT22;6251;51.762;8.660;2022-12-20T21:25:19;7.40;99.90
12374;DHT22;6251;51.762;8.660;2022-12-20T21:35:19;7.40;99.90
12374;DHT22;6251;51.762;8.660;2022-12-20T21:45:20;7.40;99.90
12374;DHT22;6251;51.762;8.660;2022-12-20T21:55:21;7.40;99.90
12374;DHT22;6251;51.762;8.660;2022-12-20T22:05:21;7.50;99.90
